createdAt,value
2019-02-08T00:02:07.351Z,6.50
2019-02-08T00:04:38.161Z,6.60
2019-02-08T00:07:09.199Z,6.60
2019-02-08T00:09:40.210Z,6.70
2019-02-08T00:12:09.835Z,6.70
2019-02-08T00:14:40.338Z,6.80
2019-02-08T00:17:12.355Z,6.90
2019-02-08T00:19:42.015Z,6.70
2019-02-08T00:22:11.852Z,6.80
2019-02-08T00:24:41.349Z,6.80
2019-02-08T00:27:10.908Z,6.80
2019-02-08T00:29:43.236Z,6.60
2019-02-08T00:32:13.566Z,6.80
2019-02-08T00:34:44.267Z,6.80
2019-02-08T00:37:14.125Z,6.90
2019-02-08T00:39:44.233Z,6.90
2019-02-08T00:42:14.147Z,7.10
2019-02-08T00:44:45.340Z,7.20
2019-02-08T00:47:14.827Z,7.40
2019-02-08T00:49:45.386Z,7.40
2019-02-08T00:52:14.946Z,7.50
2019-02-08T00:54:44.767Z,7.50
2019-02-08T00:57:19.420Z,7.50
2019-02-08T00:59:50.006Z,7.50
2019-02-08T01:02:19.514Z,7.40
2019-02-08T01:04:49.825Z,7.30
2019-02-08T01:07:20.062Z,7.40
2019-02-08T01:09:50.013Z,7.40
2019-02-08T01:12:19.530Z,7.40
2019-02-08T01:14:48.983Z,7.40
2019-02-08T01:17:18.719Z,7.40
2019-02-08T01:19:48.622Z,7.40
2019-02-08T01:22:19.302Z,7.30
2019-02-08T01:24:48.800Z,7.20
2019-02-08T01:27:18.538Z,7.10
2019-02-08T01:29:48.003Z,6.80
2019-02-08T01:32:17.579Z,6.70
2019-02-08T01:34:47.259Z,6.80
2019-02-08T01:37:16.837Z,6.80
2019-02-08T01:39:52.128Z,6.90
2019-02-08T01:42:21.912Z,6.80
2019-02-08T01:44:51.496Z,6.80
2019-02-08T01:47:22.292Z,6.60
2019-02-08T01:49:52.630Z,6.70
2019-02-08T01:52:22.186Z,6.90
2019-02-08T01:54:52.108Z,7.00
2019-02-08T01:57:21.707Z,7.10
2019-02-08T01:59:51.345Z,7.10
2019-02-08T02:02:20.883Z,7.30
2019-02-08T02:04:55.383Z,7.50
2019-02-08T02:07:25.021Z,7.50
2019-02-08T02:09:57.005Z,7.40
2019-02-08T02:12:26.978Z,7.40
2019-02-08T02:14:56.506Z,7.00
2019-02-08T02:17:25.991Z,7.10
2019-02-08T02:19:55.452Z,6.80
2019-02-08T02:22:24.893Z,6.90
2019-02-08T02:24:55.472Z,7.00
2019-02-08T02:27:26.159Z,7.10
2019-02-08T02:29:55.908Z,7.20
2019-02-08T02:32:25.991Z,7.30
2019-02-08T02:34:55.791Z,7.10
2019-02-08T02:37:25.359Z,7.00
2019-02-08T02:39:55.188Z,6.90
2019-02-08T02:42:28.561Z,6.80
2019-02-08T02:45:00.681Z,6.90
2019-02-08T02:47:32.265Z,7.00
2019-02-08T02:50:02.480Z,7.10
2019-02-08T02:52:31.911Z,7.10
2019-02-08T02:55:02.847Z,6.80
2019-02-08T02:57:36.234Z,6.80
2019-02-08T03:00:10.786Z,6.60
2019-02-08T03:02:40.688Z,6.50
2019-02-08T03:05:12.112Z,6.50
2019-02-08T03:07:44.329Z,6.30
2019-02-08T03:10:17.350Z,6.30
2019-02-08T03:12:46.936Z,6.50
2019-02-08T03:15:18.902Z,6.60
2019-02-08T03:17:50.985Z,6.60
2019-02-08T03:20:21.930Z,6.70
2019-02-08T03:22:51.696Z,6.80
2019-02-08T03:25:23.659Z,6.80
2019-02-08T03:27:53.637Z,6.70
2019-02-08T03:30:33.575Z,6.80
2019-02-08T03:33:11.002Z,6.90
2019-02-08T03:35:40.601Z,6.90
2019-02-08T03:38:12.073Z,6.90
2019-02-08T03:40:41.676Z,7.00
2019-02-08T03:43:12.172Z,7.10
2019-02-08T03:45:42.837Z,7.10
2019-02-08T03:48:12.911Z,7.10
2019-02-08T03:50:42.718Z,7.10
2019-02-08T03:53:12.604Z,7.10
2019-02-08T03:55:44.126Z,7.20
2019-02-08T03:58:13.680Z,7.20
2019-02-08T04:00:52.971Z,7.00
2019-02-08T04:03:22.510Z,7.10
2019-02-08T04:05:52.327Z,7.20
2019-02-08T04:08:22.342Z,7.20
2019-02-08T04:10:52.015Z,7.20
2019-02-08T04:13:22.019Z,7.30
2019-02-08T04:15:51.851Z,7.40
2019-02-08T04:18:21.361Z,7.40
2019-02-08T04:20:51.950Z,7.20
2019-02-08T04:23:22.121Z,7.00
2019-02-08T04:25:54.033Z,7.10
2019-02-08T04:28:23.469Z,7.20
2019-02-08T04:30:52.982Z,7.20
2019-02-08T04:33:22.399Z,7.20
2019-02-08T04:35:52.017Z,7.20
2019-02-08T04:38:21.538Z,7.00
2019-02-08T04:40:52.176Z,7.10
2019-02-08T04:43:22.500Z,7.10
2019-02-08T04:45:54.623Z,6.90
2019-02-08T04:48:24.147Z,7.00
2019-02-08T04:50:53.654Z,7.00
2019-02-08T04:53:23.146Z,7.10
2019-02-08T04:55:53.710Z,7.20
2019-02-08T04:58:25.458Z,7.20
2019-02-08T05:00:56.176Z,7.20
2019-02-08T05:03:26.001Z,7.20
2019-02-08T05:05:58.434Z,7.20
2019-02-08T05:08:38.729Z,7.20
2019-02-08T05:11:09.688Z,7.20
2019-02-08T05:13:39.149Z,7.10
2019-02-08T05:16:11.582Z,7.00
2019-02-08T05:18:42.228Z,7.10
2019-02-08T05:21:15.334Z,7.00
2019-02-08T05:23:44.842Z,7.00
2019-02-08T05:26:14.417Z,6.90
2019-02-08T05:28:44.961Z,6.90
2019-02-08T05:31:14.380Z,6.90
2019-02-08T05:33:43.957Z,6.90
2019-02-08T05:36:13.502Z,6.90
2019-02-08T05:38:45.597Z,6.80
2019-02-08T05:41:15.138Z,6.80
2019-02-08T05:43:44.638Z,6.80
2019-02-08T05:46:14.342Z,6.80
2019-02-08T05:48:43.820Z,6.80
2019-02-08T05:51:13.918Z,6.70
2019-02-08T05:53:43.856Z,6.60
2019-02-08T05:56:13.333Z,6.60
2019-02-08T05:58:44.480Z,6.60
2019-02-08T06:01:15.060Z,6.80
2019-02-08T06:03:44.699Z,6.90
2019-02-08T06:06:14.270Z,6.80
2019-02-08T06:08:46.367Z,6.90
2019-02-08T06:11:19.095Z,6.80
2019-02-08T06:13:49.320Z,6.70
2019-02-08T06:16:18.856Z,6.80
2019-02-08T06:18:51.089Z,6.60
2019-02-08T06:21:20.638Z,6.60
2019-02-08T06:23:50.088Z,6.60
2019-02-08T06:26:22.039Z,6.60
2019-02-08T06:28:51.449Z,6.60
2019-02-08T06:31:22.006Z,6.70
2019-02-08T06:33:51.443Z,6.70
2019-02-08T06:36:24.416Z,6.80
2019-02-08T06:38:56.292Z,6.80
2019-02-08T06:41:25.778Z,6.70
2019-02-08T06:43:57.282Z,6.80
2019-02-08T06:46:27.027Z,6.90
2019-02-08T06:48:56.728Z,6.90
2019-02-08T06:51:27.216Z,6.90
2019-02-08T06:53:56.983Z,6.90
2019-02-08T06:56:43.869Z,6.90
2019-02-08T06:59:35.605Z,6.90
2019-02-08T07:02:24.136Z,6.90
2019-02-08T07:05:19.649Z,6.80
2019-02-08T07:08:11.151Z,6.70
2019-02-08T07:11:22.446Z,6.50
2019-02-08T07:14:09.281Z,6.30
2019-02-08T07:17:06.280Z,6.30
2019-02-08T07:23:12.522Z,6.20
2019-02-08T07:26:12.941Z,6.20
2019-02-08T07:29:07.195Z,6.00
2019-02-08T07:31:55.714Z,5.90
2019-02-08T07:34:53.538Z,5.90
2019-02-08T07:37:40.574Z,6.00
2019-02-08T07:40:27.591Z,6.10
2019-02-08T07:43:15.826Z,6.00
2019-02-08T07:46:05.630Z,6.00
2019-02-08T07:48:45.314Z,6.00
2019-02-08T07:51:25.146Z,6.10
2019-02-08T07:54:14.862Z,6.10
2019-02-08T07:56:52.944Z,6.20
2019-02-08T07:59:45.751Z,6.20
2019-02-08T08:02:33.345Z,6.30
2019-02-08T08:05:18.879Z,6.40
2019-02-08T08:08:09.133Z,6.50
2019-02-08T08:11:04.950Z,6.70
2019-02-08T08:13:46.031Z,6.90
2019-02-08T08:16:29.382Z,7.20
2019-02-08T08:19:17.801Z,7.40
2019-02-08T08:21:59.226Z,7.50
2019-02-08T08:24:53.077Z,7.50
2019-02-08T08:27:48.278Z,7.30
2019-02-08T08:30:30.306Z,7.20
2019-02-08T08:33:18.623Z,7.30
2019-02-08T08:36:35.203Z,7.20
2019-02-08T08:39:39.123Z,7.20
2019-02-08T08:43:00.379Z,7.20
2019-02-08T08:46:06.170Z,7.20
2019-02-08T08:49:21.404Z,7.10
2019-02-08T08:52:46.890Z,7.20
2019-02-08T08:55:47.186Z,7.30
2019-02-08T08:58:51.757Z,7.40
2019-02-08T09:01:51.522Z,7.50
2019-02-08T09:04:43.800Z,7.60
2019-02-08T09:08:13.629Z,7.80
2019-02-08T09:11:08.617Z,7.90
2019-02-08T09:14:13.601Z,8.20
2019-02-08T09:17:28.826Z,8.40
2019-02-08T09:20:39.730Z,8.50
2019-02-08T09:23:51.880Z,8.70
2019-02-08T09:26:54.398Z,8.80
2019-02-08T09:29:56.247Z,8.90
2019-02-08T09:32:45.258Z,9.00
2019-02-08T09:35:52.323Z,9.10
2019-02-08T09:38:59.680Z,9.20
2019-02-08T09:42:12.111Z,9.30
2019-02-08T09:45:10.723Z,9.20
2019-02-08T09:48:24.132Z,9.30
2019-02-08T09:51:34.265Z,9.40
2019-02-08T09:54:46.821Z,9.50
2019-02-08T09:58:10.038Z,9.60
2019-02-08T10:01:16.229Z,9.70
2019-02-08T10:04:34.353Z,9.80
2019-02-08T10:07:40.282Z,9.90
2019-02-08T10:10:53.780Z,10.00
2019-02-08T10:13:48.829Z,10.20
2019-02-08T10:16:58.372Z,10.40
2019-02-08T10:20:04.832Z,10.40
2019-02-08T10:23:18.696Z,10.50
2019-02-08T10:26:22.427Z,10.50
2019-02-08T10:29:34.828Z,10.70
2019-02-08T10:33:00.402Z,10.80
2019-02-08T10:36:11.616Z,11.00
2019-02-08T10:39:31.349Z,11.10
2019-02-08T10:42:47.977Z,11.10
2019-02-08T10:46:07.832Z,11.30
2019-02-08T10:49:30.569Z,11.30
2019-02-08T10:52:44.199Z,11.40
2019-02-08T10:55:46.628Z,11.50
2019-02-08T10:58:52.467Z,11.50
2019-02-08T11:01:46.952Z,11.60
2019-02-08T11:04:53.568Z,11.70
2019-02-08T11:08:15.745Z,11.80
2019-02-08T11:11:26.579Z,11.90
2019-02-08T11:14:32.666Z,12.00
2019-02-08T11:17:47.741Z,12.00
2019-02-08T11:20:19.231Z,12.10
2019-02-08T11:22:48.836Z,12.20
2019-02-08T11:25:18.515Z,12.20
2019-02-08T11:27:50.505Z,12.20
2019-02-08T11:30:28.931Z,12.30
2019-02-08T11:32:58.420Z,12.40
2019-02-08T11:35:27.993Z,12.50
2019-02-08T11:37:57.582Z,12.50
2019-02-08T11:40:28.657Z,12.60
2019-02-08T11:42:58.233Z,12.60
2019-02-08T11:45:27.760Z,12.60
2019-02-08T11:47:57.400Z,12.70
2019-02-08T11:50:26.984Z,12.80
2019-02-08T11:52:56.559Z,12.90
2019-02-08T11:55:26.179Z,12.90
2019-02-08T11:57:55.809Z,13.00
2019-02-08T12:00:39.402Z,13.00
2019-02-08T12:03:08.890Z,13.20
2019-02-08T12:05:38.620Z,13.30
2019-02-08T12:08:08.662Z,13.30
2019-02-08T12:10:38.205Z,13.30
2019-02-08T12:13:07.752Z,13.40
2019-02-08T12:15:37.653Z,13.50
2019-02-08T12:18:07.178Z,13.50
2019-02-08T12:20:36.864Z,13.50
2019-02-08T12:23:06.467Z,13.60
2019-02-08T12:25:36.058Z,13.60
2019-02-08T12:28:07.158Z,13.60
2019-02-08T12:30:38.530Z,13.60
2019-02-08T12:33:08.112Z,13.60
2019-02-08T12:35:37.691Z,13.60
2019-02-08T12:38:07.303Z,13.70
2019-02-08T12:40:36.862Z,13.70
2019-02-08T12:43:06.932Z,13.70
2019-02-08T12:45:36.560Z,13.70
2019-02-08T12:48:06.341Z,13.70
2019-02-08T12:50:36.005Z,13.70
2019-02-08T12:53:06.048Z,13.80
2019-02-08T12:55:35.527Z,13.90
2019-02-08T12:58:05.070Z,13.80
2019-02-08T13:00:34.737Z,13.80
2019-02-08T13:03:04.720Z,13.90
2019-02-08T13:05:37.205Z,13.90
2019-02-08T13:08:06.875Z,13.90
2019-02-08T13:10:37.003Z,13.90
2019-02-08T13:13:08.259Z,13.90
2019-02-08T13:15:37.972Z,13.90
2019-02-08T13:18:11.106Z,13.90
2019-02-08T13:20:41.731Z,13.90
2019-02-08T13:23:11.280Z,13.90
2019-02-08T13:25:40.966Z,13.90
2019-02-08T13:28:10.477Z,13.90
2019-02-08T13:30:39.968Z,13.90
2019-02-08T13:33:09.618Z,13.90
2019-02-08T13:35:39.188Z,13.80
2019-02-08T13:38:10.970Z,13.80
2019-02-08T13:40:40.525Z,13.80
2019-02-08T13:43:10.082Z,13.80
2019-02-08T13:45:50.362Z,13.80
2019-02-08T13:48:20.044Z,13.80
2019-02-08T13:50:49.890Z,13.80
2019-02-08T13:53:19.332Z,13.80
2019-02-08T13:55:48.829Z,13.70
2019-02-08T13:58:18.326Z,13.70
2019-02-08T14:00:47.977Z,13.70
2019-02-08T14:03:19.626Z,13.70
2019-02-08T14:05:49.159Z,13.70
2019-02-08T14:08:18.679Z,13.70
2019-02-08T14:10:48.273Z,13.70
2019-02-08T14:13:17.952Z,13.80
2019-02-08T14:15:47.641Z,13.70
2019-02-08T14:18:17.137Z,13.80
2019-02-08T14:20:46.727Z,13.70
2019-02-08T14:23:16.280Z,13.60
2019-02-08T14:25:45.877Z,13.70
2019-02-08T14:28:15.443Z,13.60
2019-02-08T14:30:45.970Z,13.60
2019-02-08T14:33:15.477Z,13.60
2019-02-08T14:35:45.036Z,13.70
2019-02-08T14:38:19.521Z,13.60
2019-02-08T14:40:49.044Z,13.50
2019-02-08T14:43:18.633Z,13.60
2019-02-08T14:45:48.282Z,13.50
2019-02-08T14:48:17.826Z,13.50
2019-02-08T14:50:47.482Z,13.40
2019-02-08T14:53:17.000Z,13.50
2019-02-08T14:55:46.600Z,13.40
2019-02-08T14:58:16.796Z,13.40
2019-02-08T15:00:46.490Z,13.40
2019-02-08T15:03:17.175Z,13.40
2019-02-08T15:05:46.671Z,13.30
2019-02-08T15:08:16.220Z,13.30
2019-02-08T15:10:47.348Z,13.30
2019-02-08T15:13:16.902Z,13.40
2019-02-08T15:15:46.522Z,13.40
2019-02-08T15:18:16.018Z,13.40
2019-02-08T15:20:45.915Z,13.30
2019-02-08T15:23:15.535Z,13.30
2019-02-08T15:25:50.333Z,13.30
2019-02-08T15:28:21.759Z,13.30
2019-02-08T15:30:51.323Z,13.20
2019-02-08T15:33:20.862Z,13.10
2019-02-08T15:35:50.404Z,13.10
2019-02-08T15:38:19.979Z,13.00
2019-02-08T15:40:52.384Z,12.90
2019-02-08T15:43:23.121Z,12.90
2019-02-08T15:46:00.962Z,12.70
2019-02-08T15:48:30.518Z,12.70
2019-02-08T15:51:00.179Z,12.70
2019-02-08T15:53:29.784Z,12.50
2019-02-08T15:56:05.795Z,12.50
2019-02-08T15:58:35.593Z,12.50
2019-02-08T16:01:08.804Z,12.40
2019-02-08T16:03:38.439Z,12.40
2019-02-08T16:06:08.453Z,12.20
2019-02-08T16:08:37.978Z,12.30
2019-02-08T16:11:07.626Z,12.20
2019-02-08T16:13:37.179Z,12.10
2019-02-08T16:16:07.777Z,12.00
2019-02-08T16:18:37.367Z,12.00
2019-02-08T16:21:07.017Z,11.90
2019-02-08T16:23:38.781Z,11.80
2019-02-08T16:26:08.227Z,11.80
2019-02-08T16:28:37.822Z,11.80
2019-02-08T16:31:07.979Z,11.80
2019-02-08T16:33:37.539Z,11.70
2019-02-08T16:36:07.404Z,11.70
2019-02-08T16:38:36.943Z,11.60
2019-02-08T16:41:06.614Z,11.50
2019-02-08T16:43:36.269Z,11.50
2019-02-08T16:46:05.907Z,11.50
2019-02-08T16:48:35.585Z,11.40
2019-02-08T16:51:05.687Z,11.50
2019-02-08T16:53:35.346Z,11.40
2019-02-08T16:56:05.211Z,11.30
2019-02-08T16:58:34.839Z,11.20
2019-02-08T17:01:05.271Z,11.20
2019-02-08T17:03:34.781Z,11.20
2019-02-08T17:06:04.643Z,11.10
2019-02-08T17:08:34.237Z,11.10
2019-02-08T17:11:03.809Z,11.00
2019-02-08T17:13:35.740Z,11.00
2019-02-08T17:16:06.123Z,11.00
2019-02-08T17:18:35.857Z,11.00
2019-02-08T17:21:08.316Z,11.10
2019-02-08T17:23:37.859Z,10.90
2019-02-08T17:26:07.979Z,10.70
2019-02-08T17:28:37.817Z,10.70
2019-02-08T17:31:09.613Z,10.70
2019-02-08T17:33:39.475Z,10.50
2019-02-08T17:36:09.535Z,10.50
2019-02-08T17:38:39.760Z,10.50
2019-02-08T17:41:10.357Z,10.50
2019-02-08T17:43:40.564Z,10.40
2019-02-08T17:46:10.960Z,10.40
2019-02-08T17:48:41.149Z,10.40
2019-02-08T17:51:11.428Z,10.30
2019-02-08T17:53:41.582Z,10.30
2019-02-08T17:56:11.656Z,10.30
2019-02-08T17:58:41.767Z,10.40
2019-02-08T18:01:12.137Z,10.30
2019-02-08T18:03:43.335Z,10.20
2019-02-08T18:06:16.607Z,10.20
2019-02-08T18:08:46.755Z,10.20
2019-02-08T18:11:16.860Z,10.10
2019-02-08T18:13:46.845Z,10.10
2019-02-08T18:16:16.860Z,10.20
2019-02-08T18:18:46.932Z,10.20
2019-02-08T18:21:17.084Z,10.10
2019-02-08T18:23:47.142Z,10.10
2019-02-08T18:26:17.103Z,10.20
2019-02-08T18:28:48.347Z,10.10
2019-02-08T18:31:18.422Z,10.10
2019-02-08T18:33:48.331Z,9.90
2019-02-08T18:36:18.118Z,9.80
2019-02-08T18:38:48.111Z,9.80
2019-02-08T18:41:18.153Z,9.80
2019-02-08T18:43:48.286Z,9.70
2019-02-08T18:46:18.723Z,9.80
2019-02-08T18:48:48.844Z,9.80
2019-02-08T18:51:24.138Z,9.70
2019-02-08T18:53:54.294Z,9.60
2019-02-08T18:56:27.468Z,9.50
2019-02-08T18:58:57.522Z,9.60
2019-02-08T19:01:27.752Z,9.60
2019-02-08T19:03:57.771Z,9.50
2019-02-08T19:06:28.161Z,9.40
2019-02-08T19:08:58.422Z,9.40
2019-02-08T19:11:28.827Z,9.50
2019-02-08T19:13:59.098Z,9.40
2019-02-08T19:16:29.420Z,9.50
2019-02-08T19:18:59.653Z,9.50
2019-02-08T19:21:29.926Z,9.40
2019-02-08T19:24:00.046Z,9.50
2019-02-08T19:26:30.191Z,9.40
2019-02-08T19:29:00.199Z,9.30
2019-02-08T19:31:30.453Z,9.30
2019-02-08T19:34:00.710Z,9.40
2019-02-08T19:36:30.946Z,9.40
2019-02-08T19:39:01.828Z,9.40
2019-02-08T19:41:32.038Z,9.40
2019-02-08T19:44:02.049Z,9.40
2019-02-08T19:46:32.202Z,9.40
2019-02-08T19:49:02.026Z,9.50
2019-02-08T19:51:32.737Z,9.40
2019-02-08T19:54:02.713Z,9.40
2019-02-08T19:56:32.866Z,9.30
2019-02-08T19:59:02.715Z,9.20
2019-02-08T20:01:32.820Z,9.10
2019-02-08T20:04:02.871Z,9.10
2019-02-08T20:06:32.821Z,9.10
2019-02-08T20:09:04.250Z,9.10
2019-02-08T20:11:34.327Z,9.10
2019-02-08T20:14:04.419Z,9.00
2019-02-08T20:16:35.857Z,8.80
2019-02-08T20:19:07.202Z,8.70
2019-02-08T20:21:37.298Z,8.70
2019-02-08T20:24:07.516Z,8.70
2019-02-08T20:26:37.794Z,8.70
2019-02-08T20:29:08.087Z,8.70
2019-02-08T20:31:38.104Z,8.70
2019-02-08T20:34:08.356Z,8.60
2019-02-08T20:36:38.456Z,8.60
2019-02-08T20:39:10.100Z,8.70
2019-02-08T20:41:40.222Z,8.60
2019-02-08T20:44:10.450Z,8.50
2019-02-08T20:46:40.530Z,8.60
2019-02-08T20:49:10.687Z,8.50
2019-02-08T20:51:41.358Z,8.70
2019-02-08T20:54:11.487Z,8.80
2019-02-08T20:56:41.595Z,8.80
2019-02-08T20:59:12.032Z,8.80
2019-02-08T21:01:42.188Z,8.90
2019-02-08T21:04:12.351Z,8.80
2019-02-08T21:06:43.124Z,8.80
2019-02-08T21:09:14.527Z,8.80
2019-02-08T21:11:44.782Z,8.80
2019-02-08T21:14:14.655Z,8.70
2019-02-08T21:16:44.751Z,8.70
2019-02-08T21:19:14.422Z,8.70
2019-02-08T21:21:44.110Z,8.70
2019-02-08T21:24:13.732Z,8.70
2019-02-08T21:26:43.269Z,8.80
2019-02-08T21:29:12.896Z,8.80
2019-02-08T21:31:43.340Z,8.80
2019-02-08T21:34:12.904Z,8.70
2019-02-08T21:36:42.411Z,8.70
2019-02-08T21:39:11.935Z,8.70
2019-02-08T21:41:41.520Z,8.60
2019-02-08T21:44:11.066Z,8.70
2019-02-08T21:46:40.787Z,8.60
2019-02-08T21:49:10.333Z,8.50
2019-02-08T21:51:39.803Z,8.50
2019-02-08T21:54:09.287Z,8.50
2019-02-08T21:56:38.725Z,8.40
2019-02-08T21:59:08.251Z,8.40
2019-02-08T22:01:37.760Z,8.40
2019-02-08T22:04:07.240Z,8.40
2019-02-08T22:06:37.411Z,8.50
2019-02-08T22:09:08.663Z,8.50
2019-02-08T22:11:38.059Z,8.40
2019-02-08T22:14:07.625Z,8.40
2019-02-08T22:16:37.057Z,8.40
2019-02-08T22:19:06.502Z,8.40
2019-02-08T22:21:35.967Z,8.30
2019-02-08T22:24:05.628Z,8.20
2019-02-08T22:26:35.050Z,8.20
2019-02-08T22:29:04.600Z,8.20
2019-02-08T22:31:34.184Z,8.20
2019-02-08T22:34:03.683Z,8.20
2019-02-08T22:36:33.107Z,8.20
2019-02-08T22:39:02.630Z,8.20
2019-02-08T22:41:32.101Z,8.20
2019-02-08T22:44:01.558Z,8.10
2019-02-08T22:46:30.945Z,7.80
2019-02-08T22:49:00.406Z,7.50
2019-02-08T22:51:29.875Z,7.40
2019-02-08T22:53:59.435Z,7.30
2019-02-08T22:56:28.912Z,7.20
2019-02-08T22:58:59.579Z,7.30
2019-02-08T23:01:33.689Z,7.10
2019-02-08T23:04:05.547Z,7.00
2019-02-08T23:06:35.237Z,6.90
2019-02-08T23:09:09.113Z,6.90
2019-02-08T23:11:40.071Z,7.20
2019-02-08T23:14:09.675Z,7.20
2019-02-08T23:16:39.120Z,7.30
2019-02-08T23:19:08.722Z,7.30
2019-02-08T23:21:38.162Z,7.50
2019-02-08T23:24:07.748Z,7.60
2019-02-08T23:26:37.149Z,7.60
2019-02-08T23:29:06.631Z,7.70
2019-02-08T23:31:36.102Z,7.80
2019-02-08T23:34:05.646Z,7.90
2019-02-08T23:36:35.119Z,7.80
2019-02-08T23:39:11.262Z,7.80
2019-02-08T23:41:40.705Z,7.70
2019-02-08T23:44:10.190Z,7.80
2019-02-08T23:46:39.633Z,7.80
2019-02-08T23:49:09.069Z,7.80
2019-02-08T23:51:38.565Z,7.80
2019-02-08T23:54:08.383Z,7.70
2019-02-08T23:56:37.879Z,7.60
2019-02-08T23:59:07.316Z,7.60
